Terminal Aerodrome Forecast
Issued by NWS

Home | Current Version | Previous Version | Text Only | Print | Product List | Glossary On
Versions: 1 2 3 4 5 6 7 8 9 10 11 12
000
FTUS45 KRIW 211729
TAFBPI
TAF
KBPI 211729Z 2118/2218 34008KT P6SM VCSH SCT040 BKN060
     FM220100 35007KT P6SM FEW070
     FM221600 35011KT P6SM SCT070 BKN120=

USA.gov is the U.S. government's official web portal to all federal, state and local government web resources and services.